PWSweather.com
Personal Weather Stations
Station Observations
BLACKWELL
Blackwell, AlfretonGB DE55

BlackwellAlfretonGB DE55

Lat: 53.12076, Lon: -1.354978

Elevation: 410

Station Type: Vantage Pro

High Low Average
Temperature 35.1°F1.7°C 30.2°F-1.0°C 32.9°F0.5°C
Dew Point 33.6°F0.9°C 28.9°F-1.7°C 31.0°F-0.6°C
Winds 3.0 mph 4.8 kmh Calm Calm 2.0 mph ENE3.2 kmh ENE
Wind Gusts 11.0 mph17.7 kmh 2.0 mph3.2 kmh 7.0 mph11.3 kmh
Humidity 99% 90% 93%
Pressure 29.51 in999.3 mb 29.21 in989.2 mb -
Precipitation 0.00 in0.0 mm - -
Hour Temp Dew Point Humidity Winds Wind Gusts Pressure Precip Precip Rate Daily Precip Total
12:28 AM 30.2°F-1.0°C 28.9°F-1.7°C 95% 1.0 mph NE1.6 kmh NE 3.0 mph4.8 kmh 29.21 in989.2 mb 0.00 in0.0 mm 0.00 in0.0 mm 0.00 in0.0 mm
01:28 AM 30.2°F-1.0°C 28.9°F-1.7°C 95% Calm Calm 2.0 mph3.2 kmh 29.22 in989.5 mb 0.00 in0.0 mm 0.00 in0.0 mm 0.00 in0.0 mm
02:28 AM 30.7°F-0.7°C 29.5°F-1.4°C 95% Calm Calm 3.0 mph4.8 kmh 29.23 in989.8 mb 0.00 in0.0 mm 0.00 in0.0 mm 0.00 in0.0 mm
03:28 AM 31.1°F-0.5°C 29.8°F-1.2°C 95% Calm Calm 3.0 mph4.8 kmh 29.23 in989.8 mb 0.00 in0.0 mm 0.00 in0.0 mm 0.00 in0.0 mm
04:28 AM 31.6°F-0.2°C 30.0°F-1.1°C 94% Calm Calm 3.0 mph4.8 kmh 29.22 in989.5 mb 0.00 in0.0 mm 0.00 in0.0 mm 0.00 in0.0 mm
05:28 AM 31.8°F-0.1°C 29.7°F-1.3°C 92% 1.0 mph NNE1.6 kmh NNE 7.0 mph11.3 kmh 29.22 in989.5 mb 0.00 in0.0 mm 0.00 in0.0 mm 0.00 in0.0 mm
06:28 AM 31.5°F-0.3°C 29.5°F-1.4°C 92% 1.0 mph N1.6 kmh N 6.0 mph9.7 kmh 29.22 in989.5 mb 0.00 in0.0 mm 0.00 in0.0 mm 0.00 in0.0 mm
07:28 AM 31.8°F-0.1°C 29.5°F-1.4°C 91% 1.0 mph N1.6 kmh N 6.0 mph9.7 kmh 29.24 in990.2 mb 0.00 in0.0 mm 0.00 in0.0 mm 0.00 in0.0 mm
08:28 AM 32.4°F0.2°C 29.8°F-1.2°C 90% 1.0 mph N1.6 kmh N 7.0 mph11.3 kmh 29.26 in990.9 mb 0.00 in0.0 mm 0.00 in0.0 mm 0.00 in0.0 mm
09:28 AM 32.5°F0.3°C 29.8°F-1.2°C 90% 3.0 mph N4.8 kmh N 7.0 mph11.3 kmh 29.28 in991.5 mb 0.00 in0.0 mm 0.00 in0.0 mm 0.00 in0.0 mm
10:28 AM 33.1°F0.6°C 31.3°F-0.4°C 93% 2.0 mph N3.2 kmh N 8.0 mph12.9 kmh 29.29 in991.9 mb 0.00 in0.0 mm 0.00 in0.0 mm 0.00 in0.0 mm
11:28 AM 34.2°F1.2°C 32.2°F0.1°C 92% 3.0 mph N4.8 kmh N 11.0 mph17.7 kmh 29.31 in992.6 mb 0.00 in0.0 mm 0.00 in0.0 mm 0.00 in0.0 mm
12:28 PM 34.9°F1.6°C 32.9°F0.5°C 93% 2.0 mph N3.2 kmh N 7.0 mph11.3 kmh 29.31 in992.6 mb 0.00 in0.0 mm 0.00 in0.0 mm 0.00 in0.0 mm
01:28 PM 34.2°F1.2°C 32.4°F0.2°C 93% 3.0 mph N4.8 kmh N 10.0 mph16.1 kmh 29.32 in992.9 mb 0.00 in0.0 mm 0.00 in0.0 mm 0.00 in0.0 mm
02:28 PM 35.1°F1.7°C 33.1°F0.6°C 92% 2.0 mph N3.2 kmh N 11.0 mph17.7 kmh 29.33 in993.2 mb 0.00 in0.0 mm 0.00 in0.0 mm 0.00 in0.0 mm
03:28 PM 34.9°F1.6°C 32.7°F0.4°C 92% 3.0 mph N4.8 kmh N 9.0 mph14.5 kmh 29.34 in993.6 mb 0.00 in0.0 mm 0.00 in0.0 mm 0.00 in0.0 mm
04:28 PM 34.7°F1.5°C 32.5°F0.3°C 92% 3.0 mph N4.8 kmh N 11.0 mph17.7 kmh 29.36 in994.2 mb 0.00 in0.0 mm 0.00 in0.0 mm 0.00 in0.0 mm
05:28 PM 34.0°F1.1°C 33.6°F0.9°C 99% 2.0 mph N3.2 kmh N 8.0 mph12.9 kmh 29.38 in994.9 mb 0.00 in0.0 mm 0.00 in0.0 mm 0.00 in0.0 mm
06:28 PM 33.6°F0.9°C 31.8°F-0.1°C 93% 2.0 mph N3.2 kmh N 7.0 mph11.3 kmh 29.40 in995.6 mb 0.00 in0.0 mm 0.00 in0.0 mm 0.00 in0.0 mm
07:28 PM 33.6°F0.9°C 31.6°F-0.2°C 92% 3.0 mph N4.8 kmh N 11.0 mph17.7 kmh 29.42 in996.3 mb 0.00 in0.0 mm 0.00 in0.0 mm 0.00 in0.0 mm
08:28 PM 33.3°F0.7°C 31.5°F-0.3°C 93% 2.0 mph N3.2 kmh N 7.0 mph11.3 kmh 29.45 in997.3 mb 0.00 in0.0 mm 0.00 in0.0 mm 0.00 in0.0 mm
09:28 PM 33.1°F0.6°C 31.3°F-0.4°C 93% 1.0 mph N1.6 kmh N 6.0 mph9.7 kmh 29.47 in998.0 mb 0.00 in0.0 mm 0.00 in0.0 mm 0.00 in0.0 mm
10:28 PM 33.3°F0.7°C 31.5°F-0.3°C 93% 2.0 mph N3.2 kmh N 9.0 mph14.5 kmh 29.50 in999.0 mb 0.00 in0.0 mm 0.00 in0.0 mm 0.00 in0.0 mm
11:28 PM 32.7°F0.4°C 31.1°F-0.5°C 94% 1.0 mph N1.6 kmh N 8.0 mph12.9 kmh 29.51 in999.3 mb 0.00 in0.0 mm 0.00 in0.0 mm 0.00 in0.0 mm